Time;durP1;ratioP1;P1;durP2;ratioP2;P2;SDS_P1;SDS_P2;PMS_P1;PMS_P2;Temp;Humidity;BMP_temperature;BMP_pressure;BME280_temperature;BME280_humidity;BME280_pressure;Samples;Min_cycle;Max_cycle;Signal;HPM_P1;HPM_P2
2022/05/04 00:01:19;;;;;;;12.07;4.80;;;;;;;9.29;64.94;101882.56;6144839;23;20005;-83
2022/05/04 00:03:44;;;;;;;14.02;5.40;;;;;;;9.22;64.88;101882.03;6171896;23;20002;-83
2022/05/04 00:06:12;;;;;;;16.08;5.72;;;;;;;9.18;64.96;101880.50;6171302;23;20013;-83
2022/05/04 00:08:37;;;;;;;11.40;5.18;;;;;;;9.14;64.69;101883.41;6168869;23;20009;-83
2022/05/04 00:11:04;;;;;;;10.65;5.20;;;;;;;9.06;65.26;101882.03;6167542;23;20052;-83
2022/05/04 00:13:29;;;;;;;10.20;5.22;;;;;;;9.02;65.41;101883.13;6167463;23;20012;-83
2022/05/04 00:15:54;;;;;;;11.15;5.82;;;;;;;8.98;65.58;101876.28;6167025;23;20002;-83
2022/05/04 00:18:20;;;;;;;10.20;5.43;;;;;;;8.98;65.66;101883.38;6167205;23;20005;-83
2022/05/04 00:20:46;;;;;;;13.65;5.78;;;;;;;8.92;65.85;101889.84;6168369;23;20029;-83
2022/05/04 00:23:12;;;;;;;12.77;5.60;;;;;;;8.85;66.57;101884.00;6168622;23;20024;-83
2022/05/04 00:25:38;;;;;;;11.38;5.40;;;;;;;8.85;66.62;101885.81;6170764;23;20543;-83
2022/05/04 00:28:04;;;;;;;13.55;5.47;;;;;;;8.84;66.72;101889.41;6169295;23;20002;-83
2022/05/04 00:30:30;;;;;;;13.27;6.28;;;;;;;8.76;67.06;101881.88;6169326;23;20008;-83
2022/05/04 00:32:55;;;;;;;10.27;5.72;;;;;;;8.81;66.82;101879.84;6143800;23;20009;-83
2022/05/04 00:35:20;;;;;;;13.27;5.85;;;;;;;8.81;67.15;101889.56;6170010;23;20020;-83
2022/05/04 00:37:46;;;;;;;12.80;5.85;;;;;;;8.81;67.44;101885.13;6172093;23;20423;-83
2022/05/04 00:40:11;;;;;;;12.73;5.85;;;;;;;8.84;67.38;101884.97;6170991;23;20001;-83
2022/05/04 00:42:36;;;;;;;10.77;5.82;;;;;;;8.86;67.56;101891.03;6170363;23;20049;-83
2022/05/04 00:45:02;;;;;;;14.35;6.53;;;;;;;8.89;67.54;101890.88;6170023;23;19998;-83
2022/05/04 00:47:28;;;;;;;12.68;6.25;;;;;;;8.93;67.73;101882.78;6171252;23;20010;-83
2022/05/04 00:50:02;;;;;;;11.93;6.57;;;;;;;8.92;67.88;101892.50;6152459;23;20005;-83
2022/05/04 00:52:27;;;;;;;9.93;6.20;;;;;;;8.93;67.50;101877.47;6148769;23;20005;-83
2022/05/04 00:54:52;;;;;;;13.77;6.60;;;;;;;8.91;67.94;101881.97;6166634;23;20015;-83
2022/05/04 01:00:11;;;;;;;14.88;6.65;;;;;;;8.94;67.71;101877.38;6166528;23;20045;-83
2022/05/04 01:02:41;;;;;;;16.05;6.55;;;;;;;8.97;67.72;101871.91;6167037;23;20002;-83
2022/05/04 01:05:09;;;;;;;12.50;6.97;;;;;;;8.97;67.58;101876.38;6166447;23;20017;-83
2022/05/04 01:07:36;;;;;;;11.45;6.10;;;;;;;9.00;67.67;101876.19;6139183;23;20010;-83
2022/05/04 01:10:03;;;;;;;12.07;6.45;;;;;;;8.98;67.87;101868.34;6171262;23;20052;-83
2022/05/04 01:12:28;;;;;;;22.10;7.15;;;;;;;9.00;67.31;101876.19;6166751;23;20053;-84
2022/05/04 01:14:53;;;;;;;13.68;6.55;;;;;;;9.00;67.93;101869.09;6165006;23;20383;-83
2022/05/04 01:17:18;;;;;;;14.23;6.60;;;;;;;9.04;67.02;101869.78;6166038;23;20080;-84
2022/05/04 01:19:44;;;;;;;15.73;6.30;;;;;;;9.02;67.34;101879.63;6165176;23;20006;-83
2022/05/04 01:22:12;;;;;;;23.13;6.78;;;;;;;9.04;67.38;101875.09;6167475;23;20638;-83
2022/05/04 01:24:39;;;;;;;14.77;6.45;;;;;;;9.05;67.23;101876.81;6166667;23;20008;-83
2022/05/04 01:27:12;;;;;;;12.20;6.25;;;;;;;9.07;66.71;101882.88;6165858;23;20005;-83
2022/05/04 01:29:37;;;;;;;18.05;5.93;;;;;;;9.07;66.69;101874.94;6166255;23;20431;-83
2022/05/04 01:32:03;;;;;;;11.23;5.63;;;;;;;9.11;66.79;101881.78;6165519;23;20028;-82
2022/05/04 01:34:28;;;;;;;13.30;5.95;;;;;;;9.11;66.22;101872.97;6138729;23;20009;-83
2022/05/04 01:36:57;;;;;;;11.57;5.95;;;;;;;9.12;66.38;101872.88;6164814;23;20006;-83
2022/05/04 01:39:22;;;;;;;17.58;6.10;;;;;;;9.12;66.58;101867.56;6164841;23;20089;-83
2022/05/04 01:42:02;;;;;;;13.70;5.45;;;;;;;9.13;66.65;101876.41;6164082;23;20335;-83
2022/05/04 01:44:32;;;;;;;10.77;5.30;;;;;;;9.12;66.74;101872.03;6163488;23;20006;-83
2022/05/04 01:46:58;;;;;;;11.23;5.53;;;;;;;9.11;66.26;101873.84;6163270;23;20435;-83
2022/05/04 01:49:23;;;;;;;14.70;5.78;;;;;;;9.12;66.46;101877.34;6137874;23;20005;-83
2022/05/04 01:51:48;;;;;;;8.93;4.93;;;;;;;9.10;67.16;101872.13;6163943;23;20379;-83
2022/05/04 01:54:14;;;;;;;15.82;5.82;;;;;;;9.11;66.64;101871.19;6163994;23;20450;-83
2022/05/04 01:56:39;;;;;;;16.80;6.35;;;;;;;9.12;66.25;101872.03;6163928;23;20006;-83
2022/05/04 01:59:05;;;;;;;16.60;5.88;;;;;;;9.10;66.47;101869.47;6138547;23;20005;-83
2022/05/04 02:01:30;;;;;;;10.93;5.35;;;;;;;9.12;65.72;101861.44;6165079;23;20025;-83
2022/05/04 02:03:57;;;;;;;14.73;5.43;;;;;;;9.13;65.90;101869.31;6166153;23;20061;-83
2022/05/04 02:06:23;;;;;;;9.95;5.65;;;;;;;9.15;66.28;101867.41;6166198;23;20014;-83
2022/05/04 02:08:48;;;;;;;10.23;5.28;;;;;;;9.13;66.04;101871.09;6169288;23;20037;-83
2022/05/04 02:11:13;;;;;;;13.18;5.47;;;;;;;9.14;65.94;101855.09;6184874;23;20017;-83
2022/05/04 02:13:39;;;;;;;12.07;5.65;;;;;;;9.17;66.24;101862.88;6183985;23;20006;-83
2022/05/04 02:16:05;;;;;;;20.65;5.63;;;;;;;9.18;65.40;101861.94;6169302;23;20103;-83
2022/05/04 02:18:33;;;;;;;16.60;5.70;;;;;;;9.16;65.26;101868.25;6169455;23;20017;-83
2022/05/04 02:20:59;;;;;;;16.08;5.82;;;;;;;9.19;65.07;101861.03;6169397;23;20012;-83
2022/05/04 02:23:24;;;;;;;11.85;5.53;;;;;;;9.20;65.40;101860.06;6168349;23;20009;-83
2022/05/04 02:25:50;;;;;;;14.15;5.72;;;;;;;9.16;65.36;101855.88;6170692;23;20001;-83
2022/05/04 02:28:15;;;;;;;14.45;5.65;;;;;;;9.18;65.31;101856.66;6144269;23;20002;-83
2022/05/04 02:30:40;;;;;;;13.85;5.57;;;;;;;9.17;65.51;101859.38;6171572;23;20017;-83
2022/05/04 02:33:06;;;;;;;15.90;5.85;;;;;;;9.15;65.21;101851.50;6173120;23;20001;-83
2022/05/04 02:38:18;;;;;;;18.23;5.90;;;;;;;9.16;65.20;101855.00;6181058;23;20044;-84
2022/05/04 02:40:43;;;;;;;16.52;5.88;;;;;;;9.14;65.36;101859.53;6149797;23;20001;-84
2022/05/04 02:43:09;;;;;;;12.68;5.32;;;;;;;9.11;65.13;101854.41;6170248;23;20017;-84
2022/05/04 02:45:34;;;;;;;16.30;5.93;;;;;;;9.11;65.40;101857.06;6169545;23;20049;-84
2022/05/04 02:47:59;;;;;;;15.50;5.38;;;;;;;9.10;65.49;101853.56;6170033;23;20006;-84
2022/05/04 02:50:25;;;;;;;10.13;5.20;;;;;;;9.11;64.85;101859.72;6143335;23;20028;-83
2022/05/04 02:52:50;;;;;;;11.85;5.85;;;;;;;9.10;64.89;101850.06;6144913;23;20020;-84
2022/05/04 02:55:16;;;;;;;13.48;5.20;;;;;;;9.08;64.82;101856.28;6169378;23;20370;-84
2022/05/04 02:57:41;;;;;;;17.52;5.50;;;;;;;9.05;65.66;101845.84;6170227;23;20009;-83
2022/05/04 03:00:07;;;;;;;15.75;5.82;;;;;;;9.04;65.39;101849.47;6170660;23;20006;-83
2022/05/04 03:02:32;;;;;;;9.70;5.00;;;;;;;9.02;65.15;101846.00;6172871;23;20001;-83
2022/05/04 03:05:06;;;;;;;13.90;5.57;;;;;;;9.01;65.26;101844.31;6172197;23;20053;-83
2022/05/04 03:07:32;;;;;;;16.90;6.15;;;;;;;8.97;65.85;101848.06;6173611;23;20010;-83
2022/05/04 03:10:01;;;;;;;10.95;5.40;;;;;;;8.98;65.30;101844.47;6171281;23;20013;-83
2022/05/04 03:12:27;;;;;;;13.52;5.97;;;;;;;8.97;65.25;101842.75;6171748;23;20427;-83
2022/05/04 03:14:52;;;;;;;15.45;6.18;;;;;;;8.94;65.50;101837.63;6170849;23;20049;-83
2022/05/04 03:17:18;;;;;;;13.15;6.07;;;;;;;8.97;65.35;101839.25;6169667;23;20062;-83
2022/05/04 03:19:44;;;;;;;11.95;5.90;;;;;;;8.96;65.63;101833.13;6170074;23;20005;-83
2022/05/04 03:22:10;;;;;;;15.18;5.78;;;;;;;8.93;65.18;101829.78;6146270;23;20002;-83
2022/05/04 03:24:35;;;;;;;12.60;5.60;;;;;;;8.90;65.25;101825.50;6173091;23;20041;-83
2022/05/04 03:27:01;;;;;;;14.68;5.82;;;;;;;8.90;65.12;101830.78;6169037;23;20060;-83
2022/05/04 03:29:26;;;;;;;21.20;6.10;;;;;;;8.86;65.40;101827.47;6168440;23;20140;-83
2022/05/04 03:31:52;;;;;;;15.35;5.53;;;;;;;8.82;65.59;101830.34;6168483;23;20009;-83
2022/05/04 03:34:18;;;;;;;11.50;5.70;;;;;;;8.81;65.24;101833.91;6168881;23;20084;-83
2022/05/04 03:36:43;;;;;;;16.90;6.10;;;;;;;8.74;65.34;101833.38;6169000;23;20382;-83
2022/05/04 03:39:09;;;;;;;17.30;5.68;;;;;;;8.75;65.57;101837.75;6169319;23;20009;-84
2022/05/04 03:41:35;;;;;;;15.10;5.40;;;;;;;8.72;65.78;101837.06;6172562;23;20005;-84
2022/05/04 03:44:00;;;;;;;11.60;5.20;;;;;;;8.65;66.22;101837.38;6178280;23;20009;-83
2022/05/04 03:46:28;;;;;;;19.88;5.93;;;;;;;8.65;66.35;101839.19;6175428;23;20031;-83
2022/05/04 03:48:56;;;;;;;15.55;5.63;;;;;;;8.60;66.06;101827.97;6169624;23;20011;-83
2022/05/04 03:51:22;;;;;;;15.80;6.47;;;;;;;8.63;65.77;101833.97;6173392;23;20009;-83
2022/05/04 03:53:50;;;;;;;12.05;5.40;;;;;;;8.59;66.07;101837.69;6150422;23;20005;-84
2022/05/04 03:56:16;;;;;;;14.45;6.65;;;;;;;8.60;66.07;101831.47;6174229;23;20021;-85
2022/05/04 03:58:42;;;;;;;14.13;5.55;;;;;;;8.58;66.05;101838.66;6164227;23;20498;-85
2022/05/04 04:01:08;;;;;;;14.13;6.22;;;;;;;8.54;66.10;101836.25;6164061;23;20001;-85
2022/05/04 04:03:33;;;;;;;12.18;5.80;;;;;;;8.55;65.69;101836.16;6136924;23;20836;-85
2022/05/04 04:05:59;;;;;;;13.02;5.40;;;;;;;8.50;66.13;101839.03;6162243;23;20017;-86
2022/05/04 04:08:25;;;;;;;16.92;6.93;;;;;;;8.47;66.85;101841.84;6162423;23;20010;-86
2022/05/04 04:10:51;;;;;;;13.38;5.80;;;;;;;8.47;66.32;101838.34;6164760;23;20096;-86
2022/05/04 04:13:16;;;;;;;12.98;5.45;;;;;;;8.44;65.89;101834.09;6165542;23;20025;-86
2022/05/04 04:15:42;;;;;;;16.73;6.00;;;;;;;8.40;66.32;101834.28;6165153;23;20001;-85
2022/05/04 04:18:08;;;;;;;12.70;5.75;;;;;;;8.38;65.84;101828.22;6165134;23;20005;-86
2022/05/04 04:23:17;;;;;;;12.48;5.90;;;;;;;8.32;66.16;101832.88;6164680;23;20021;-85
2022/05/04 04:25:42;;;;;;;13.27;5.82;;;;;;;8.34;66.16;101830.16;6163454;23;20006;-84
2022/05/04 04:28:09;;;;;;;13.25;6.45;;;;;;;8.29;66.70;101830.41;6163381;23;20013;-85
2022/05/04 04:30:39;;;;;;;13.43;6.18;;;;;;;8.26;66.77;101834.97;6163027;23;20339;-85
2022/05/04 04:33:06;;;;;;;15.05;5.65;;;;;;;8.22;66.64;101839.56;6135953;23;20104;-85
2022/05/04 04:35:32;;;;;;;14.00;6.43;;;;;;;8.23;66.86;101836.00;6162391;23;20085;-85
2022/05/04 04:37:58;;;;;;;12.20;6.30;;;;;;;8.22;67.01;101838.72;6135279;23;20013;-85
2022/05/04 04:40:24;;;;;;;16.85;6.93;;;;;;;8.19;67.22;101838.88;6161685;23;20339;-85
2022/05/04 04:42:49;;;;;;;13.65;6.32;;;;;;;8.15;67.57;101846.13;6135523;23;20081;-85
2022/05/04 04:45:14;;;;;;;14.00;6.25;;;;;;;8.14;67.43;101857.63;6164478;23;20009;-85
2022/05/04 04:47:40;;;;;;;13.43;6.30;;;;;;;8.15;67.78;101846.97;6164435;23;20009;-84
2022/05/04 04:50:06;;;;;;;15.10;6.40;;;;;;;8.13;67.87;101835.59;6137617;23;20012;-85
2022/05/04 04:52:34;;;;;;;16.05;6.82;;;;;;;8.09;67.76;101843.78;6163853;23;20398;-85
2022/05/04 04:54:59;;;;;;;17.05;6.55;;;;;;;8.09;67.74;101841.13;6163659;23;20001;-85
2022/05/04 04:57:25;;;;;;;14.88;6.60;;;;;;;8.10;67.63;101838.41;6162866;23;20041;-85
2022/05/04 04:59:50;;;;;;;14.55;6.72;;;;;;;8.10;67.14;101842.84;6163213;23;20009;-86
2022/05/04 05:02:16;;;;;;;14.68;6.85;;;;;;;8.07;68.09;101845.66;6162239;23;20005;-86
2022/05/04 05:04:42;;;;;;;16.55;6.68;;;;;;;8.07;67.97;101845.66;6161327;23;20010;-86
2022/05/04 05:07:07;;;;;;;15.70;6.70;;;;;;;8.07;68.26;101841.19;6162199;23;20014;-85
2022/05/04 05:09:32;;;;;;;13.68;6.38;;;;;;;8.03;68.35;101844.94;6163412;23;20375;-84
2022/05/04 05:11:57;;;;;;;16.77;7.05;;;;;;;8.06;68.02;101843.91;6162439;23;20070;-84
2022/05/04 05:17:07;;;;;;;16.13;6.95;;;;;;;8.18;68.11;101850.38;6167512;23;20045;-82
2022/05/04 05:19:32;;;;;;;16.67;7.18;;;;;;;8.25;68.10;101854.44;6175690;23;20005;-84
2022/05/04 05:21:57;;;;;;;15.35;6.38;;;;;;;8.29;67.79;101848.06;6181115;23;20040;-83
2022/05/04 05:24:22;;;;;;;13.60;6.55;;;;;;;8.40;67.93;101853.66;6179798;23;20008;-82
2022/05/04 05:26:51;;;;;;;17.08;7.18;;;;;;;8.50;67.82;101854.09;6178143;23;20013;-84
2022/05/04 05:29:16;;;;;;;18.23;7.22;;;;;;;8.63;67.05;101863.09;6173232;23;20006;-84
2022/05/04 05:31:41;;;;;;;17.33;7.18;;;;;;;8.72;66.70;101847.66;6146115;23;20040;-84
2022/05/04 05:34:07;;;;;;;13.52;6.47;;;;;;;8.80;66.76;101843.66;6141232;23;20021;-85
2022/05/04 05:36:32;;;;;;;18.58;6.80;;;;;;;8.93;66.41;101846.53;6164688;23;20037;-84
2022/05/04 05:38:57;;;;;;;20.65;6.35;;;;;;;9.02;66.18;101845.16;6136403;23;20010;-85
2022/05/04 05:41:23;;;;;;;11.57;6.55;;;;;;;9.13;65.92;101847.25;6161110;23;20013;-85
2022/05/04 05:43:51;;;;;;;14.23;6.60;;;;;;;9.26;64.68;101849.13;6161407;23;20029;-84
2022/05/04 05:46:16;;;;;;;14.43;6.53;;;;;;;9.29;65.69;101842.78;6162695;23;19997;-84
2022/05/04 05:48:42;;;;;;;15.70;6.30;;;;;;;9.45;64.48;101843.66;6161747;23;20038;-84
2022/05/04 05:51:07;;;;;;;12.88;6.22;;;;;;;9.50;64.17;101845.22;6138187;23;20392;-83
2022/05/04 05:53:32;;;;;;;16.90;5.97;;;;;;;9.58;63.89;101848.28;6167036;23;20001;-82
2022/05/04 05:55:58;;;;;;;16.58;6.38;;;;;;;9.58;63.10;101846.50;6142964;23;19994;-80
2022/05/04 05:58:24;;;;;;;14.13;6.40;;;;;;;9.60;63.84;101847.25;6175975;23;20002;-81
2022/05/04 06:00:52;;;;;;;20.63;6.72;;;;;;;9.61;63.06;101843.66;6175656;23;20001;-81
2022/05/04 06:03:18;;;;;;;16.60;6.18;;;;;;;9.57;62.44;101851.88;6177072;23;20009;-81
2022/05/04 06:05:43;;;;;;;14.60;6.57;;;;;;;9.53;62.57;101850.34;6150568;23;20013;-81
2022/05/04 06:08:09;;;;;;;14.68;6.20;;;;;;;9.54;63.62;101852.91;6174420;23;20006;-82
2022/05/04 06:10:39;;;;;;;14.18;5.88;;;;;;;9.62;63.54;101852.47;6169746;23;20107;-81
2022/05/04 06:13:06;;;;;;;13.73;6.45;;;;;;;9.63;63.37;101859.50;6171554;23;20469;-81
2022/05/04 06:15:38;;;;;;;15.48;6.97;;;;;;;9.69;62.85;101860.94;6166546;23;20025;-80
2022/05/04 06:18:04;;;;;;;15.82;6.95;;;;;;;9.70;62.72;101866.16;6169113;23;20009;-81
2022/05/04 06:20:29;;;;;;;18.90;7.32;;;;;;;9.75;62.87;101860.59;6151011;23;20010;-82
2022/05/04 06:22:55;;;;;;;19.45;6.60;;;;;;;9.82;62.53;101864.59;6180979;23;19998;-81
2022/05/04 06:25:20;;;;;;;20.52;7.22;;;;;;;9.92;62.34;101870.25;6175784;23;20040;-81
2022/05/04 06:27:46;;;;;;;15.55;6.60;;;;;;;10.00;62.05;101865.34;6166887;23;20013;-81
2022/05/04 06:35:40;;;;;;;14.32;6.45;;;;;;;10.46;61.29;101869.78;6176719;23;20036;-81
2022/05/04 06:38:06;;;;;;;13.40;6.47;;;;;;;10.58;60.55;101871.72;6177942;23;20029;-82
2022/05/04 06:40:31;;;;;;;15.30;6.68;;;;;;;10.69;59.65;101868.41;6174455;23;20016;-81
2022/05/04 06:42:57;;;;;;;12.90;6.60;;;;;;;10.80;60.13;101870.41;6140160;23;20005;-82
2022/05/04 06:45:23;;;;;;;14.25;5.97;;;;;;;10.86;58.19;101880.69;6165747;23;19998;-80
2022/05/04 06:47:48;;;;;;;10.82;5.50;;;;;;;10.97;57.76;101880.00;6165033;23;20016;-80
2022/05/04 06:50:14;;;;;;;10.40;5.70;;;;;;;10.99;57.15;101873.66;6144799;23;20024;-81
2022/05/04 06:52:39;;;;;;;16.65;6.38;;;;;;;11.08;57.25;101881.03;6172796;23;20033;-83
2022/05/04 06:55:06;;;;;;;13.18;6.05;;;;;;;11.15;57.14;101875.34;6170531;23;20060;-82
2022/05/04 06:57:31;;;;;;;20.48;6.32;;;;;;;11.21;56.37;101877.63;6168084;23;20045;-82
2022/05/04 06:59:59;;;;;;;15.00;5.60;;;;;;;11.32;56.09;101880.44;6163362;23;20013;-82
2022/05/04 07:02:24;;;;;;;14.05;5.40;;;;;;;11.39;55.85;101879.13;6176663;23;20010;-82
2022/05/04 07:04:50;;;;;;;11.30;5.57;;;;;;;11.47;55.67;101871.53;6168087;23;20024;-79
2022/05/04 07:07:15;;;;;;;16.38;5.68;;;;;;;11.66;56.60;101865.00;6173004;23;20009;-81
2022/05/04 07:09:40;;;;;;;15.43;5.35;;;;;;;11.83;54.94;101871.88;6172593;23;20013;-82
2022/05/04 07:12:07;;;;;;;18.20;6.07;;;;;;;12.03;54.98;101866.13;6161847;23;20081;-82
2022/05/04 07:14:32;;;;;;;10.18;5.75;;;;;;;12.26;53.21;101869.06;6141873;23;19986;-82
2022/05/04 07:16:58;;;;;;;17.20;5.55;;;;;;;12.51;53.03;101865.59;6165656;23;20008;-83
2022/05/04 07:19:23;;;;;;;17.15;5.38;;;;;;;12.81;52.07;101868.91;6155649;23;20005;-84
2022/05/04 07:21:49;;;;;;;9.85;5.47;;;;;;;13.00;51.23;101865.81;6173093;23;20013;-83
2022/05/04 07:24:14;;;;;;;13.05;5.72;;;;;;;13.24;50.82;101853.38;6170077;23;20001;-83
2022/05/04 07:26:40;;;;;;;15.80;5.63;;;;;;;13.54;49.96;101853.97;6170616;23;20010;-84
2022/05/04 07:29:06;;;;;;;8.48;5.15;;;;;;;13.75;48.96;101862.22;6170382;23;20041;-82
2022/05/04 07:31:32;;;;;;;13.85;5.47;;;;;;;14.03;48.12;101853.84;6159072;23;20010;-85
2022/05/04 07:33:57;;;;;;;12.18;5.35;;;;;;;14.25;47.73;101850.44;6160057;23;20021;-86
2022/05/04 07:36:22;;;;;;;17.42;5.53;;;;;;;14.55;47.56;101861.53;6166770;23;20450;-86
2022/05/04 07:38:51;;;;;;;14.95;5.55;;;;;;;14.90;46.71;101853.47;6165998;23;20009;-82
2022/05/04 07:44:00;;;;;;;10.30;4.85;;;;;;;15.42;45.32;101856.47;6141417;23;20044;-82
2022/05/04 07:46:27;;;;;;;11.60;4.95;;;;;;;15.52;45.07;101859.25;6168891;23;20005;-83
2022/05/04 07:48:53;;;;;;;15.93;5.50;;;;;;;15.68;44.02;101857.00;6143304;23;20017;-83
2022/05/04 07:51:18;;;;;;;13.57;5.18;;;;;;;16.03;44.58;101861.31;6165142;23;20747;-82
2022/05/04 07:53:44;;;;;;;11.93;5.40;;;;;;;16.28;43.33;101854.72;6162036;23;20016;-84
2022/05/04 07:56:09;;;;;;;13.80;5.70;;;;;;;16.48;43.15;101862.91;6161184;23;20001;-83
2022/05/04 07:58:35;;;;;;;12.73;5.47;;;;;;;16.80;42.17;101861.94;6162114;23;20002;-82
2022/05/04 08:06:29;;;;;;;13.73;5.30;;;;;;;17.60;40.70;101860.28;6165738;23;20111;-85
2022/05/04 08:08:54;;;;;;;12.48;5.63;;;;;;;17.72;40.28;101855.66;6160606;23;20013;-83
2022/05/04 08:11:21;;;;;;;11.20;5.43;;;;;;;18.10;39.58;101867.41;6161030;23;20595;-83
2022/05/04 08:13:46;;;;;;;12.18;5.63;;;;;;;18.31;38.99;101857.34;6163678;23;20041;-83
2022/05/04 08:16:13;;;;;;;13.65;6.10;;;;;;;18.39;37.88;101859.34;6161240;23;20009;-84
2022/05/04 08:18:40;;;;;;;10.95;5.80;;;;;;;18.67;38.29;101857.56;6155491;23;20016;-85
2022/05/04 08:21:06;;;;;;;9.98;5.30;;;;;;;19.02;37.70;101847.16;6162496;23;20009;-84
2022/05/04 08:23:39;;;;;;;11.23;5.50;;;;;;;19.17;38.41;101850.19;6160461;23;20013;-85
2022/05/04 08:26:04;;;;;;;13.00;5.63;;;;;;;19.16;36.61;101852.03;6161095;23;20056;-84
2022/05/04 08:28:30;;;;;;;10.82;5.60;;;;;;;19.27;37.08;101853.69;6158715;23;20131;-83
2022/05/04 08:30:56;;;;;;;11.65;5.72;;;;;;;19.50;35.73;101854.13;6153599;23;20056;-82
2022/05/04 08:33:22;;;;;;;13.93;5.40;;;;;;;19.78;35.68;101856.78;6181021;23;20005;-82
2022/05/04 08:35:47;;;;;;;11.20;5.68;;;;;;;19.93;35.03;101849.88;6183418;23;20000;-81
2022/05/04 08:38:13;;;;;;;11.63;5.80;;;;;;;20.25;35.06;101852.97;6182157;23;20013;-83
2022/05/04 08:40:41;;;;;;;12.75;5.28;;;;;;;20.47;35.06;101857.03;6182780;23;20288;-83
2022/05/04 08:43:08;;;;;;;12.88;6.30;;;;;;;20.56;35.16;101855.22;6156599;23;20020;-83
2022/05/04 08:45:39;;;;;;;11.10;5.85;;;;;;;20.51;34.05;101861.94;6183049;23;20020;-82
2022/05/04 08:48:11;;;;;;;11.70;5.32;;;;;;;20.50;33.88;101857.56;6181970;23;20010;-83
2022/05/04 08:50:39;;;;;;;12.60;5.65;;;;;;;20.74;33.05;101847.94;6180781;23;20005;-83
2022/05/04 08:53:05;;;;;;;9.48;5.68;;;;;;;20.75;32.50;101846.94;6181266;23;20006;-84
2022/05/04 08:55:30;;;;;;;10.13;5.90;;;;;;;20.98;33.80;101849.06;6166011;23;20573;-81
2022/05/04 08:57:55;;;;;;;11.07;5.40;;;;;;;21.11;33.72;101841.38;6165365;23;20024;-81
2022/05/04 09:00:21;;;;;;;9.45;5.07;;;;;;;21.24;33.01;101843.63;6137495;23;20029;-82
2022/05/04 09:02:47;;;;;;;8.68;5.55;;;;;;;21.30;33.10;101848.38;6163259;23;20016;-81
2022/05/04 09:05:18;;;;;;;8.35;5.30;;;;;;;21.75;32.84;101841.75;6162311;23;20040;-81
2022/05/04 09:07:46;;;;;;;9.52;5.05;;;;;;;21.49;32.02;101843.72;6162834;23;20009;-80
2022/05/04 09:10:16;;;;;;;8.60;4.68;;;;;;;22.10;31.55;101849.69;6168608;23;20080;-81
2022/05/04 09:12:43;;;;;;;12.50;5.43;;;;;;;22.23;30.56;101841.06;6169494;23;20006;-81
2022/05/04 09:15:21;;;;;;;10.18;5.60;;;;;;;22.60;32.43;101837.84;6163907;23;20002;-81
2022/05/04 09:17:57;;;;;;;11.38;5.68;;;;;;;22.52;30.46;101835.16;6162735;23;20009;-82
2022/05/04 09:20:47;;;;;;;10.45;5.50;;;;;;;22.60;30.29;101829.72;6158677;23;20088;-81
2022/05/04 09:23:14;;;;;;;10.25;5.43;;;;;;;22.95;30.50;101824.00;6163011;23;20065;-81
2022/05/04 09:25:39;;;;;;;12.63;5.38;;;;;;;23.27;29.45;101825.78;6164465;23;20009;-80
2022/05/04 09:28:11;;;;;;;11.52;5.10;;;;;;;23.51;30.57;101832.91;6176261;23;20009;-81
2022/05/04 09:30:38;;;;;;;10.65;5.82;;;;;;;23.40;29.13;101825.19;6142035;23;20006;-82
2022/05/04 09:33:10;;;;;;;10.40;5.97;;;;;;;23.51;29.20;101829.34;6166736;23;20088;-82
2022/05/04 09:35:35;;;;;;;9.40;5.65;;;;;;;23.59;28.64;101822.00;6175948;23;20024;-84
2022/05/04 09:46:44;;;;;;;11.15;5.50;;;;;;;24.08;28.61;101825.38;6172889;23;20041;-83
2022/05/04 09:49:14;;;;;;;12.40;5.50;;;;;;;24.23;29.33;101825.44;6148640;23;20009;-83
2022/05/04 09:51:43;;;;;;;14.20;6.60;;;;;;;24.06;28.36;101828.28;6175634;23;20288;-82
2022/05/04 09:54:17;;;;;;;11.25;5.93;;;;;;;24.30;28.16;101820.97;6145372;23;20088;-83
2022/05/04 09:56:44;;;;;;;9.40;5.57;;;;;;;24.18;27.14;101817.81;6176467;23;20012;-83
2022/05/04 09:59:13;;;;;;;12.32;5.70;;;;;;;24.44;26.40;101819.28;6174965;23;20010;-83
2022/05/04 10:01:40;;;;;;;10.63;5.28;;;;;;;24.79;27.01;101815.00;6179431;23;19993;-84
2022/05/04 10:04:05;;;;;;;9.55;5.07;;;;;;;25.05;26.42;101813.69;6180202;23;20342;-83
2022/05/04 10:06:35;;;;;;;10.85;5.13;;;;;;;24.91;25.55;101810.81;6134398;23;20022;-83
2022/05/04 10:09:01;;;;;;;11.50;5.40;;;;;;;24.86;25.44;101807.78;6119739;23;20013;-82
2022/05/04 10:11:33;;;;;;;11.05;5.57;;;;;;;25.01;27.21;101806.94;6116450;23;20002;-82
2022/05/04 10:14:02;;;;;;;12.95;5.30;;;;;;;24.93;26.26;101808.72;6145694;23;20013;-82
2022/05/04 10:16:35;;;;;;;10.02;5.35;;;;;;;24.98;25.45;101812.75;6142574;23;19994;-83
2022/05/04 10:19:04;;;;;;;9.93;5.40;;;;;;;24.99;25.94;101809.00;6147194;23;20014;-82
2022/05/04 10:21:30;;;;;;;13.98;5.30;;;;;;;24.96;25.93;101807.50;6126672;23;20058;-83
2022/05/04 10:24:00;;;;;;;10.40;5.85;;;;;;;25.00;24.94;101802.53;6127058;23;20006;-82
2022/05/04 10:26:36;;;;;;;13.77;5.30;;;;;;;25.35;26.12;101800.03;6138655;23;20025;-83
2022/05/04 10:32:10;;;;;;;;;;;;;;;26.13;28.42;101806.47;6152483;23;20005;-81
2022/05/04 10:34:44;;;;;;;10.43;4.85;;;;;;;26.10;26.31;101801.41;6130218;23;19896;-81
2022/05/04 10:37:19;;;;;;;11.98;5.47;;;;;;;25.94;25.15;101799.78;6155462;23;20000;-81
2022/05/04 10:40:06;;;;;;;11.10;5.32;;;;;;;26.21;26.74;101794.56;6127109;23;20045;-82
2022/05/04 10:42:56;;;;;;;11.05;4.95;;;;;;;26.48;26.49;101794.75;6155071;23;20032;-82
2022/05/04 10:45:24;;;;;;;8.27;5.13;;;;;;;26.21;23.75;101795.44;6154323;23;20026;-82
2022/05/04 10:47:52;;;;;;;10.38;5.65;;;;;;;26.15;23.82;101800.81;6154095;23;20006;-82
2022/05/04 10:50:18;;;;;;;9.60;4.90;;;;;;;26.32;24.60;101798.63;6124621;23;20077;-82
2022/05/04 10:52:47;;;;;;;10.38;5.30;;;;;;;26.27;24.44;101791.06;6137025;23;20409;-82
2022/05/04 10:55:13;;;;;;;10.15;5.25;;;;;;;26.54;25.32;101789.34;6132326;23;20037;-82
2022/05/04 10:57:40;;;;;;;10.27;5.47;;;;;;;26.25;24.34;101784.97;6130638;23;20332;-82
2022/05/04 11:00:06;;;;;;;10.45;5.72;;;;;;;26.62;23.91;101782.06;6131530;23;20006;-81
2022/05/04 11:02:32;;;;;;;13.55;6.20;;;;;;;26.67;23.77;101782.31;6130893;23;20013;-83
2022/05/04 11:05:11;;;;;;;10.30;5.43;;;;;;;26.68;25.04;101784.84;6132869;23;20034;-85
2022/05/04 11:07:37;;;;;;;10.20;5.07;;;;;;;26.91;23.96;101776.34;6170166;23;20036;-85
2022/05/04 11:10:03;;;;;;;9.68;5.85;;;;;;;26.64;23.44;101782.72;6145643;23;20010;-85
2022/05/04 11:12:28;;;;;;;11.95;6.18;;;;;;;26.57;23.02;101774.47;6171792;23;20005;-83
2022/05/04 11:14:53;;;;;;;9.03;5.40;;;;;;;26.65;24.40;101773.50;6173256;23;20224;-83
2022/05/04 11:17:19;;;;;;;13.95;6.65;;;;;;;26.59;23.29;101775.94;6175269;23;20249;-83
2022/05/04 11:19:48;;;;;;;10.07;6.55;;;;;;;26.65;23.76;101773.50;6171526;23;20010;-83
2022/05/04 11:22:16;;;;;;;11.10;6.75;;;;;;;26.86;22.89;101773.41;6147116;23;20009;-82
2022/05/04 11:24:43;;;;;;;12.60;5.35;;;;;;;26.89;23.43;101766.69;6149012;23;20016;-83
2022/05/04 11:27:15;;;;;;;10.43;5.78;;;;;;;26.57;23.66;101771.75;6173311;23;20009;-83
2022/05/04 11:29:40;;;;;;;8.73;5.97;;;;;;;26.84;24.47;101771.91;6174599;23;20060;-83
2022/05/04 11:32:06;;;;;;;11.30;6.13;;;;;;;26.68;23.59;101771.22;6167822;23;20006;-83
2022/05/04 11:34:37;;;;;;;10.45;6.18;;;;;;;26.55;23.30;101762.94;6161613;23;20045;-82
2022/05/04 11:37:05;;;;;;;11.00;5.75;;;;;;;26.69;23.55;101759.25;6131854;23;20016;-82
2022/05/04 11:39:35;;;;;;;10.13;5.65;;;;;;;26.37;23.63;101758.84;6133665;23;20014;-84
2022/05/04 11:42:19;;;;;;;10.25;6.07;;;;;;;26.87;24.65;101752.44;6163953;23;20005;-83
2022/05/04 11:44:47;;;;;;;9.02;5.05;;;;;;;27.18;24.31;101753.78;6162172;23;20009;-84
2022/05/04 11:47:13;;;;;;;11.15;5.53;;;;;;;27.09;24.35;101753.94;6161229;23;20013;-82
2022/05/04 11:49:39;;;;;;;11.25;5.68;;;;;;;26.77;22.95;101747.34;6132114;23;20012;-82
2022/05/04 11:52:05;;;;;;;9.43;5.50;;;;;;;26.69;23.95;101744.81;6159405;23;20005;-83
2022/05/04 11:54:30;;;;;;;9.68;5.18;;;;;;;26.71;23.31;101740.84;6158658;23;20245;-84
2022/05/04 11:56:55;;;;;;;13.23;4.95;;;;;;;26.75;22.96;101738.56;6158169;23;20104;-83